ADDS METAR Data INFO
IDs: Format: Raw Decoded Include TAF

Data at: 1532 UTC 18 Jun 2018

KVUJ 181510Z AUTO 00000KT 10SM CLR 32/21 A3015 RMK AO2 T03230211
KVUJ 181450Z AUTO 32004KT 10SM CLR 32/22 A3016 RMK AO2 T03220215
KVUJ 181430Z AUTO 27003KT 10SM CLR 31/21 A3015 RMK AO2 T03080213
KVUJ 181410Z AUTO 00000KT 10SM CLR 31/22 A3015 RMK AO2 T03080216
KVUJ 181350Z AUTO 27004KT 10SM CLR 30/21 A3016 RMK AO2 T02990211
KVUJ 181330Z AUTO 00000KT 10SM CLR 29/21 A3016 RMK AO2 T02930212
KVUJ 181310Z AUTO 00000KT 10SM CLR 29/21 A3016 RMK AO2 T02870214
KVUJ 181250Z AUTO 00000KT 10SM CLR 27/21 A3017 RMK AO2 T02740213
KVUJ 181230Z AUTO 29003KT 10SM CLR 27/21 A3017 RMK AO2 T02680212
KVUJ 181210Z AUTO 28003KT 10SM CLR 26/22 A3016 RMK AO2 T02600215
KVUJ 181150Z AUTO 00000KT 10SM CLR 25/22 A3016 RMK AO2 T02510215 10251 20202
KVUJ 181130Z AUTO 00000KT 10SM CLR 24/22 A3016 RMK AO2 T02370215
KVUJ 181110Z AUTO 00000KT 10SM CLR 23/22 A3016 RMK AO2 T02330216
KVUJ 181050Z AUTO 24003KT 10SM CLR 22/21 A3015 RMK AO2 T02180212
KVUJ 181030Z AUTO 24003KT 10SM CLR 22/21 A3015 RMK AO2 T02150207
KVUJ 181010Z AUTO 25003KT 10SM CLR 21/20 A3015 RMK AO2 T02090202
KVUJ 180945Z AUTO 00000KT 10SM CLR 20/20 A3015 RMK AO2 T02030200
KVUJ 180930Z AUTO 00000KT 10SM CLR 21/21 A3014 RMK AO2 T02090205
KVUJ 180910Z AUTO 00000KT 10SM CLR 21/20 A3015 RMK AO2 T02080203
KVUJ 180850Z AUTO 00000KT 10SM CLR 22/21 A3014 RMK AO2 T02200206
KVUJ 180830Z AUTO 00000KT 10SM CLR 22/21 A3014 RMK AO2 T02200207
KVUJ 180810Z AUTO 00000KT 10SM CLR 22/21 A3014 RMK AO2 T02190206
KVUJ 180750Z AUTO 00000KT 10SM CLR 22/21 A3014 RMK AO2 T02240208
KVUJ 180730Z AUTO 00000KT 10SM CLR 22/21 A3014 RMK AO2 T02210206
KVUJ 180710Z AUTO 00000KT 10SM CLR 24/21 A3014 RMK AO2 T02360210
KVUJ 180650Z AUTO 00000KT 10SM CLR 24/21 A3014 RMK AO2 T02360209
KVUJ 180630Z AUTO 23003KT 10SM CLR 24/21 A3014 RMK AO2 T02410208
KVUJ 180610Z AUTO 00000KT 10SM CLR 24/21 A3015 RMK AO2 T02420208
KVUJ 180550Z AUTO 24003KT 10SM CLR 25/21 A3015 RMK AO2 T02490208 10306 20245
KVUJ 180530Z AUTO 00000KT 10SM SCT050 25/21 A3015 RMK AO2 T02480209
KVUJ 180510Z AUTO 00000KT 10SM SCT050 25/21 A3015 RMK AO2 T02490210
KVUJ 180450Z AUTO 00000KT 10SM CLR 25/21 A3015 RMK AO2 T02530211 403490199
KVUJ 180430Z AUTO 21003KT 10SM CLR 25/21 A3014 RMK AO2 T02510212
KVUJ 180410Z AUTO 23003KT 10SM CLR 25/21 A3014 RMK AO2 T02530212
KVUJ 180350Z AUTO 00000KT 10SM CLR 25/22 A3015 RMK AO2 T02540220
KVUJ 180330Z AUTO 00000KT 10SM SCT100 SCT120 25/22 A3015 RMK AO2 T02510221
KVUJ 180310Z AUTO 00000KT 10SM OVC100 27/21 A3015 RMK AO2 T02670214
KVUJ 180250Z AUTO 00000KT 10SM SCT070 BKN100 27/21 A3015 RMK AO2 T02660214
KVUJ 180230Z AUTO 00000KT 10SM SCT070 SCT090 26/21 A3015 RMK AO2 T02640214
KVUJ 180210Z AUTO 22003KT 10SM SCT070 SCT090 SCT100 27/22 A3014 RMK AO2 LTG DSNT NW T02660216
KVUJ 180150Z AUTO 00000KT 10SM SCT070 28/22 A3014 RMK AO2 LTG DSNT NW T02750215
KVUJ 180130Z AUTO 00000KT 10SM CLR 27/22 A3013 RMK AO2 T02730217
KVUJ 180110Z AUTO 00000KT 10SM CLR 28/22 A3012 RMK AO2 LTG DSNT E T02800218
KVUJ 180050Z AUTO 23003KT 10SM SCT065 29/22 A3012 RMK AO2 T02850221
KVUJ 180030Z AUTO 23003KT 10SM SCT065 28/22 A3012 RMK AO2 T02820223
KVUJ 180010Z AUTO 22003KT 10SM CLR 29/22 A3012 RMK AO2 T02930224
KVUJ 172350Z AUTO 19004KT 10SM CLR 31/22 A3010 RMK AO2 T03080220 10349 20308
KVUJ 172330Z AUTO 17005KT 10SM CLR 32/22 A3010 RMK AO2 LTG DSNT W T03150219
KVUJ 172310Z AUTO 17006KT 10SM CLR 32/22 A3010 RMK AO2 LTG DSNT E AND W T03200216
KVUJ 172250Z AUTO 18005KT 10SM CLR 32/22 A3010 RMK AO2 LTG DSNT W T03190215
KVUJ 172230Z AUTO 17008KT 10SM SCT060 SCT080 33/22 A3010 RMK AO2 LTG DSNT E T03310218
KVUJ 172210Z AUTO 16006KT 10SM SCT060 SCT080 34/20 A3010 RMK AO2 T03420203
KVUJ 172150Z AUTO 17004KT 10SM SCT060 33/20 A3010 RMK AO2 LTG DSNT E AND W T03340204
KVUJ 172130Z AUTO 19006KT 10SM VCTS CLR 34/20 A3010 RMK AO2 LTG DSNT E T03430202
KVUJ 172110Z AUTO 16005KT 10SM CLR 35/20 A3010 RMK AO2 LTG DSNT E T03450200
KVUJ 172050Z AUTO 20003KT 10SM CLR 34/20 A3012 RMK AO2 LTG DSNT E AND W T03440203
KVUJ 172030Z AUTO 20007KT 10SM CLR 35/21 A3012 RMK AO2 LTG DSNT E T03450207
KVUJ 172010Z AUTO 17007KT 10SM SCT055 SCT110 33/20 A3012 RMK AO2 LTG DSNT E T03290204
KVUJ 171950Z AUTO 19005KT 10SM SCT120 35/21 A3013 RMK AO2 LTG DSNT NE T03460207
KVUJ 171930Z AUTO 16007KT 10SM CLR 35/21 A3013 RMK AO2 T03480213
KVUJ 171910Z AUTO 20006KT 10SM SCT055 34/21 A3013 RMK AO2 LTG DSNT SE AND W T03420212
KVUJ 171850Z AUTO 15005KT 10SM SCT090 34/21 A3014 RMK AO2 T03440212
KVUJ 171830Z AUTO 00000KT 10SM CLR 33/20 A3015 RMK AO2 LTG DSNT W T03340201
KVUJ 171810Z AUTO 18005KT 10SM SCT050 SCT070 33/21 A3015 RMK AO2 T03330210
KVUJ 171750Z AUTO 20006KT 10SM SCT050 SCT070 SCT100 32/21 A3015 RMK AO2 T03210211 10342 20236
KVUJ 171730Z AUTO 19005KT 10SM SCT065 SCT075 BKN090 32/21 A3016 RMK AO2 T03220208
KVUJ 171710Z AUTO 19004KT 10SM SCT050 SCT065 BKN075 32/21 A3017 RMK AO2 T03240207
KVUJ 171650Z AUTO 19003KT 10SM SCT048 SCT060 BKN090 33/20 A3017 RMK AO2 T03320204
KVUJ 171630Z AUTO 22003KT 10SM BKN048 33/21 A3018 RMK AO2 T03280209
KVUJ 171610Z AUTO 23005KT 10SM CLR 33/21 A3018 RMK AO2 T03260208
KVUJ 171550Z AUTO 00000KT 10SM CLR 33/22 A3018 RMK AO2 T03270217
KVUJ 171530Z AUTO 00000KT 10SM CLR 32/21 A3018 RMK AO2 T03190213
KVUJ 171510Z AUTO 22004KT 10SM CLR 32/21 A3019 RMK AO2 T03150211
KVUJ 171450Z AUTO 21006KT 10SM CLR 31/21 A3019 RMK AO2 T03090212
KVUJ 171430Z AUTO 00000KT 10SM CLR 30/21 A3019 RMK AO2 T02990211
KVUJ 171410Z AUTO 19003KT 10SM CLR 29/22 A3019 RMK AO2 T02880220
KVUJ 171350Z AUTO 00000KT 10SM CLR 28/22 A3018 RMK AO2 T02840223
KVUJ 171330Z AUTO 00000KT 10SM CLR 28/22 A3018 RMK AO2 T02770220
KVUJ 171310Z AUTO 00000KT 10SM CLR 27/22 A3018 RMK AO2 T02700220
KVUJ 171250Z AUTO 20003KT 10SM CLR 26/22 A3017 RMK AO2 LTG DSNT W T02620220
KVUJ 171230Z AUTO 00000KT 10SM CLR 25/22 A3017 RMK AO2 T02540218
KVUJ 171210Z AUTO 22004KT 10SM CLR 24/22 A3016 RMK AO2 T02430221
KVUJ 171150Z AUTO 21003KT 10SM CLR 24/22 A3016 RMK AO2 T02350221 10235 20199
KVUJ 171130Z AUTO 00000KT 10SM CLR 22/22 A3015 RMK AO2 T02230221
KVUJ 171110Z AUTO 00000KT 10SM CLR 21/21 A3015 RMK AO2 T02090209
KVUJ 171050Z AUTO 00000KT 4SM BR CLR 20/20 A3014 RMK AO2 T02020202
KVUJ 171030Z AUTO 00000KT 3SM BR CLR 20/20 A3013 RMK AO2 T01990199
KVUJ 171010Z AUTO 00000KT 3SM BR CLR 20/20 A3013 RMK AO2 T02000199
KVUJ 170950Z AUTO 00000KT 10SM CLR 20/20 A3012 RMK AO2 T02040203
KVUJ 170930Z AUTO 00000KT 2SM BR SCT004 21/20 A3011 RMK AO2 T02050204
KVUJ 170910Z AUTO 00000KT 2SM BR CLR 20/20 A3012 RMK AO2 T02040203
KVUJ 170850Z AUTO 00000KT 10SM CLR 21/21 A3012 RMK AO2 T02100206
KVUJ 170830Z AUTO 00000KT 10SM CLR 21/21 A3010 RMK AO2 T02130210
KVUJ 170810Z AUTO 00000KT 10SM CLR 22/21 A3012 RMK AO2 T02200212
KVUJ 170750Z AUTO 22003KT 10SM CLR 22/21 A3012 RMK AO2 T02170211
KVUJ 170730Z AUTO 22003KT 10SM CLR 22/21 A3012 RMK AO2 T02200210
KVUJ 170710Z AUTO 00000KT 10SM CLR 22/21 A3012 RMK AO2 T02240212
KVUJ 170650Z AUTO 00000KT 10SM CLR 23/21 A3013 RMK AO2 T02280213
KVUJ 170630Z AUTO 21003KT 10SM CLR 23/21 A3013 RMK AO2 T02250211
KVUJ 170610Z AUTO 21003KT 10SM CLR 22/21 A3014 RMK AO2 T02230210
KVUJ 170550Z AUTO 21003KT 10SM CLR 23/21 A3014 RMK AO2 T02250211 10296 20223
KVUJ 170530Z AUTO 21004KT 10SM CLR 23/21 A3015 RMK AO2 T02260211
KVUJ 170510Z AUTO 20004KT 10SM CLR 23/21 A3015 RMK AO2 T02280211
KVUJ 170450Z AUTO 22003KT 10SM CLR 23/21 A3015 RMK AO2 T02290212 403290184
KVUJ 170430Z AUTO 00000KT 10SM CLR 23/21 A3016 RMK AO2 T02320211
KVUJ 170410Z AUTO 00000KT 10SM CLR 24/21 A3016 RMK AO2 T02400213
KVUJ 170350Z AUTO 00000KT 10SM CLR 24/21 A3016 RMK AO2 T02400212